createdAt,value
2023-01-31T00:01:36.606Z,2.15
2023-01-31T00:16:41.206Z,2.13
2023-01-31T00:31:45.940Z,2.04
2023-01-31T00:46:50.584Z,1.85
2023-01-31T01:01:55.898Z,1.79
2023-01-31T01:17:00.877Z,1.86
2023-01-31T01:32:05.351Z,1.92
2023-01-31T01:47:14.965Z,1.88
2023-01-31T02:02:19.465Z,1.83
2023-01-31T02:17:24.501Z,1.62
2023-01-31T02:32:47.736Z,1.50
2023-01-31T02:48:04.939Z,1.53
2023-01-31T03:03:14.189Z,1.43
2023-01-31T03:18:21.000Z,1.31
2023-01-31T03:33:49.370Z,1.13
2023-01-31T03:48:55.436Z,1.05
2023-01-31T04:04:01.937Z,0.88
2023-01-31T04:19:07.537Z,0.74
2023-01-31T04:34:12.447Z,0.72
2023-01-31T04:49:16.966Z,0.76
2023-01-31T05:04:22.806Z,0.81
2023-01-31T05:19:27.464Z,0.87
2023-01-31T05:34:33.736Z,0.85
2023-01-31T05:49:38.049Z,0.94
2023-01-31T06:04:42.958Z,1.03
2023-01-31T06:19:47.221Z,0.92
2023-01-31T06:34:52.382Z,0.75
2023-01-31T06:49:56.980Z,0.61
2023-01-31T07:05:01.507Z,0.62
2023-01-31T07:20:06.495Z,0.85
2023-01-31T07:35:11.713Z,1.11
2023-01-31T07:50:16.170Z,1.16
2023-01-31T08:05:21.357Z,1.11
2023-01-31T08:20:26.173Z,1.35
2023-01-31T08:35:31.512Z,1.65
2023-01-31T08:50:36.651Z,1.89
2023-01-31T09:05:41.611Z,2.06
2023-01-31T09:20:46.662Z,2.25
2023-01-31T09:35:58.381Z,2.63
2023-01-31T09:51:03.144Z,2.57
2023-01-31T10:06:13.891Z,2.24
2023-01-31T10:21:23.122Z,2.15
2023-01-31T10:36:30.756Z,2.31
2023-01-31T10:51:38.608Z,2.60
2023-01-31T11:06:43.348Z,2.57
2023-01-31T11:21:50.925Z,2.49
2023-01-31T11:36:56.698Z,2.63
2023-01-31T11:52:20.382Z,2.79
2023-01-31T12:07:32.138Z,3.03
2023-01-31T12:22:45.421Z,3.12
2023-01-31T12:37:57.188Z,3.22
2023-01-31T12:53:13.916Z,3.37
2023-01-31T13:08:19.366Z,3.28
2023-01-31T13:23:31.922Z,3.05
2023-01-31T13:38:43.818Z,3.00
2023-01-31T13:53:52.685Z,2.99
2023-01-31T14:08:59.377Z,2.89
2023-01-31T14:24:06.624Z,2.84
2023-01-31T14:39:21.022Z,2.66
2023-01-31T14:54:31.148Z,2.45
2023-01-31T15:09:39.259Z,2.38
2023-01-31T15:24:47.894Z,2.20
2023-01-31T15:40:11.056Z,2.09
2023-01-31T15:55:16.033Z,1.98
2023-01-31T16:10:21.303Z,1.95
2023-01-31T16:25:25.601Z,1.92
2023-01-31T16:40:35.439Z,1.87
2023-01-31T16:55:39.803Z,1.84
2023-01-31T17:10:45.377Z,1.79
2023-01-31T17:25:49.571Z,1.74
2023-01-31T17:40:54.249Z,1.81
2023-01-31T17:55:58.761Z,1.96
2023-01-31T18:11:06.836Z,2.12
2023-01-31T18:26:11.464Z,2.26
2023-01-31T18:41:16.216Z,2.42
2023-01-31T18:56:21.085Z,2.55
2023-01-31T19:11:26.568Z,2.68
2023-01-31T19:26:33.626Z,2.71
2023-01-31T19:41:43.612Z,2.67
2023-01-31T19:56:58.720Z,2.76
2023-01-31T20:12:11.255Z,2.90
2023-01-31T20:27:19.874Z,3.00
2023-01-31T20:42:27.507Z,3.04
2023-01-31T20:57:36.347Z,3.16
2023-01-31T21:12:41.681Z,3.37
2023-01-31T21:27:46.477Z,3.50
2023-01-31T21:42:54.086Z,3.56
2023-01-31T21:57:58.489Z,3.63
2023-01-31T22:13:03.096Z,3.70
2023-01-31T22:28:07.322Z,3.76
2023-01-31T22:43:13.135Z,3.83
2023-01-31T22:58:17.896Z,3.86
2023-01-31T23:13:22.450Z,3.87
2023-01-31T23:28:26.603Z,3.74
2023-01-31T23:43:31.130Z,3.20
2023-01-31T23:58:35.746Z,2.86
